createdAt,value
2018-12-21T00:02:17.400Z,5.90
2018-12-21T00:05:21.718Z,5.90
2018-12-21T00:08:25.943Z,5.90
2018-12-21T00:11:30.230Z,5.90
2018-12-21T00:14:34.602Z,5.90
2018-12-21T00:17:38.947Z,5.90
2018-12-21T00:20:43.160Z,5.90
2018-12-21T00:23:47.501Z,5.80
2018-12-21T00:26:51.795Z,5.80
2018-12-21T00:29:56.048Z,5.80
2018-12-21T00:33:05.563Z,5.90
2018-12-21T00:36:15.239Z,5.80
2018-12-21T00:39:24.800Z,5.80
2018-12-21T00:42:34.115Z,5.80
2018-12-21T00:48:58.863Z,5.80
2018-12-21T00:52:03.162Z,5.80
2018-12-21T00:55:07.505Z,5.80
2018-12-21T00:58:11.803Z,5.70
2018-12-21T01:01:16.259Z,5.70
2018-12-21T01:04:20.635Z,5.70
2018-12-21T01:07:24.905Z,5.70
2018-12-21T01:10:29.109Z,5.70
2018-12-21T01:13:33.308Z,5.70
2018-12-21T01:16:37.623Z,5.70
2018-12-21T01:19:42.005Z,5.70
2018-12-21T01:22:46.271Z,5.70
2018-12-21T01:25:52.477Z,5.80
2018-12-21T01:28:56.722Z,5.80
2018-12-21T01:32:00.951Z,5.80
2018-12-21T01:35:05.701Z,5.80
2018-12-21T01:38:10.047Z,5.80
2018-12-21T01:41:14.255Z,5.80
2018-12-21T01:44:18.731Z,5.80
2018-12-21T01:47:23.020Z,5.90
2018-12-21T01:50:27.250Z,5.90
2018-12-21T01:53:31.467Z,5.90
2018-12-21T01:56:35.743Z,6.00
2018-12-21T01:59:40.159Z,6.00
2018-12-21T02:02:44.384Z,6.00
2018-12-21T02:05:48.638Z,6.00
2018-12-21T02:08:52.935Z,6.00
2018-12-21T02:11:57.158Z,6.10
2018-12-21T02:15:01.360Z,6.00
2018-12-21T02:18:05.849Z,6.10
2018-12-21T02:21:10.099Z,6.10
2018-12-21T02:24:14.324Z,6.10
2018-12-21T02:27:18.656Z,6.10
2018-12-21T02:30:23.009Z,6.10
2018-12-21T02:33:27.308Z,6.10
2018-12-21T02:36:31.552Z,6.10
2018-12-21T02:39:35.756Z,6.10
2018-12-21T02:42:40.032Z,6.10
2018-12-21T02:45:44.235Z,6.10
2018-12-21T02:48:48.549Z,6.10
2018-12-21T02:51:52.841Z,6.10
2018-12-21T02:54:57.061Z,6.10
2018-12-21T02:58:01.278Z,6.10
2018-12-21T03:01:05.668Z,6.10
2018-12-21T03:04:09.955Z,6.10
2018-12-21T03:07:14.186Z,6.10
2018-12-21T03:10:18.479Z,6.10
2018-12-21T03:13:22.766Z,6.10
2018-12-21T03:16:26.999Z,6.10
2018-12-21T03:19:31.188Z,6.10
2018-12-21T03:22:35.504Z,6.10
2018-12-21T03:25:39.715Z,6.00
2018-12-21T03:28:43.959Z,6.00
2018-12-21T03:31:48.281Z,6.00
2018-12-21T03:34:52.528Z,6.00
2018-12-21T03:37:56.735Z,6.00
2018-12-21T03:41:01.056Z,5.90
2018-12-21T03:44:05.473Z,6.00
2018-12-21T03:47:09.758Z,6.00
2018-12-21T03:50:14.081Z,5.90
2018-12-21T03:53:18.363Z,5.90
2018-12-21T03:56:22.570Z,5.90
2018-12-21T03:59:26.804Z,5.90
2018-12-21T04:02:31.052Z,5.90
2018-12-21T04:05:35.428Z,5.90
2018-12-21T04:08:39.786Z,5.90
2018-12-21T04:11:44.034Z,5.80
2018-12-21T04:14:48.309Z,5.80
2018-12-21T04:17:52.603Z,5.90
2018-12-21T04:20:56.859Z,5.80
2018-12-21T04:24:01.095Z,5.90
2018-12-21T04:27:05.354Z,5.90
2018-12-21T04:30:10.433Z,5.90
2018-12-21T04:33:14.651Z,5.90
2018-12-21T04:36:18.879Z,5.90
2018-12-21T04:39:23.329Z,5.90
2018-12-21T04:42:27.563Z,5.80
2018-12-21T04:45:31.919Z,5.90
2018-12-21T04:48:36.191Z,5.90
2018-12-21T04:51:40.503Z,5.80
2018-12-21T04:54:44.707Z,5.90
2018-12-21T04:57:49.095Z,5.80
2018-12-21T05:00:53.383Z,5.80
2018-12-21T05:03:57.734Z,5.80
2018-12-21T05:07:02.049Z,5.80
2018-12-21T05:10:07.171Z,5.90
2018-12-21T05:13:11.479Z,5.90
2018-12-21T05:16:15.768Z,5.90
2018-12-21T05:19:20.135Z,5.90
2018-12-21T05:22:24.415Z,5.80
2018-12-21T05:25:28.751Z,5.80
2018-12-21T05:28:33.016Z,5.80
2018-12-21T05:31:37.239Z,5.90
2018-12-21T05:34:41.462Z,5.90
2018-12-21T05:37:45.819Z,5.80
2018-12-21T05:40:50.132Z,5.90
2018-12-21T05:43:54.344Z,5.90
2018-12-21T05:46:58.619Z,5.80
2018-12-21T05:50:03.022Z,5.90
2018-12-21T05:53:07.315Z,5.90
2018-12-21T05:56:11.504Z,5.90
2018-12-21T05:59:15.708Z,5.90
2018-12-21T06:02:20.072Z,5.90
2018-12-21T06:05:24.315Z,5.90
2018-12-21T06:08:28.539Z,5.90
2018-12-21T06:11:32.766Z,5.90
2018-12-21T06:14:36.978Z,5.90
2018-12-21T06:17:41.185Z,5.90
2018-12-21T06:20:45.391Z,5.90
2018-12-21T06:23:49.639Z,5.90
2018-12-21T06:26:53.863Z,5.90
2018-12-21T06:29:58.105Z,5.90
2018-12-21T06:33:02.317Z,6.00
2018-12-21T06:36:06.536Z,6.00
2018-12-21T06:39:10.742Z,6.00
2018-12-21T06:42:14.964Z,6.00
2018-12-21T06:45:19.265Z,6.00
2018-12-21T06:48:23.519Z,6.00
2018-12-21T06:51:27.795Z,6.00
2018-12-21T06:54:32.022Z,6.00
2018-12-21T06:57:36.243Z,6.10
2018-12-21T07:00:40.594Z,6.00
2018-12-21T07:03:44.814Z,6.10
2018-12-21T07:06:49.025Z,6.00
2018-12-21T07:09:53.329Z,6.10
2018-12-21T07:12:57.618Z,6.10
2018-12-21T07:16:01.903Z,6.10
2018-12-21T07:19:06.156Z,6.10
2018-12-21T07:22:10.340Z,6.10
2018-12-21T07:25:14.664Z,6.10
2018-12-21T07:28:18.890Z,6.10
2018-12-21T07:31:23.269Z,6.10
2018-12-21T07:34:27.458Z,6.10
2018-12-21T07:37:31.830Z,6.10
2018-12-21T07:40:36.046Z,6.10
2018-12-21T07:43:40.249Z,6.10
2018-12-21T07:46:44.455Z,6.10
2018-12-21T07:49:48.676Z,6.10
2018-12-21T07:52:53.394Z,6.10
2018-12-21T07:55:57.818Z,6.10
2018-12-21T07:59:02.094Z,6.10
2018-12-21T08:02:06.580Z,6.10
2018-12-21T08:05:10.783Z,6.10
2018-12-21T08:08:15.006Z,6.10
2018-12-21T08:11:19.319Z,6.10
2018-12-21T08:14:23.549Z,6.10
2018-12-21T08:17:27.772Z,6.10
2018-12-21T08:20:32.003Z,6.10
2018-12-21T08:23:44.080Z,6.10
2018-12-21T08:26:42.547Z,6.20
2018-12-21T08:29:46.767Z,6.10
2018-12-21T08:32:50.993Z,6.10
2018-12-21T08:35:55.217Z,6.20
2018-12-21T08:38:59.434Z,6.10
2018-12-21T08:42:03.662Z,6.20
2018-12-21T08:45:10.286Z,6.20
2018-12-21T08:48:14.643Z,6.20
2018-12-21T08:51:18.933Z,6.20
2018-12-21T08:54:23.147Z,6.20
2018-12-21T08:57:27.352Z,6.20
2018-12-21T09:00:31.564Z,6.20
2018-12-21T09:03:35.999Z,6.20
2018-12-21T09:06:40.214Z,6.20
2018-12-21T09:09:44.429Z,6.20
2018-12-21T09:12:48.648Z,6.20
2018-12-21T09:15:52.983Z,6.20
2018-12-21T09:18:57.280Z,6.20
2018-12-21T09:22:01.459Z,6.20
2018-12-21T09:25:05.936Z,6.20
2018-12-21T09:28:10.183Z,6.20
2018-12-21T09:31:14.517Z,6.20
2018-12-21T09:34:18.851Z,6.20
2018-12-21T09:37:23.065Z,6.20
2018-12-21T09:40:27.335Z,6.20
2018-12-21T09:43:31.546Z,6.20
2018-12-21T09:46:35.767Z,6.20
2018-12-21T09:49:40.063Z,6.20
2018-12-21T09:52:44.575Z,6.10
2018-12-21T09:55:48.814Z,6.10
2018-12-21T09:58:53.095Z,6.20
2018-12-21T10:01:57.322Z,6.20
2018-12-21T10:05:01.503Z,6.10
2018-12-21T10:08:05.871Z,6.20
2018-12-21T10:11:10.092Z,6.10
2018-12-21T10:14:14.328Z,6.20
2018-12-21T10:17:18.560Z,6.20
2018-12-21T10:20:22.879Z,6.10
2018-12-21T10:23:27.063Z,6.20
2018-12-21T10:26:31.299Z,6.20
2018-12-21T10:29:35.527Z,6.20
2018-12-21T10:32:39.960Z,6.20
2018-12-21T10:35:44.176Z,6.20
2018-12-21T10:38:48.389Z,6.20
2018-12-21T10:41:52.675Z,6.20
2018-12-21T10:44:56.964Z,6.20
2018-12-21T10:48:01.240Z,6.20
2018-12-21T10:51:05.590Z,6.20
2018-12-21T10:54:09.894Z,6.20
2018-12-21T10:57:14.168Z,6.20
2018-12-21T11:00:18.565Z,6.20
2018-12-21T11:03:22.786Z,6.20
2018-12-21T11:06:27.087Z,6.20
2018-12-21T11:09:31.298Z,6.20
2018-12-21T11:12:35.563Z,6.20
2018-12-21T11:15:39.775Z,6.20
2018-12-21T11:18:43.967Z,6.20
2018-12-21T11:21:48.238Z,6.20
2018-12-21T11:24:52.520Z,6.20
2018-12-21T11:27:56.718Z,6.20
2018-12-21T11:31:01.022Z,6.20
2018-12-21T11:34:05.455Z,6.20
2018-12-21T11:37:09.747Z,6.20
2018-12-21T11:40:14.093Z,6.20
2018-12-21T11:43:18.363Z,6.20
2018-12-21T11:46:22.739Z,6.20
2018-12-21T11:49:26.981Z,6.20
2018-12-21T11:52:31.138Z,6.20
2018-12-21T11:55:35.443Z,6.20
2018-12-21T11:58:39.738Z,6.10
2018-12-21T12:01:43.946Z,6.10
2018-12-21T12:04:48.139Z,6.10
2018-12-21T12:07:52.432Z,6.10
2018-12-21T12:10:56.842Z,6.10
2018-12-21T12:14:01.048Z,6.10
2018-12-21T12:17:05.431Z,6.10
2018-12-21T12:20:09.883Z,6.10
2018-12-21T12:23:14.199Z,6.10
2018-12-21T12:26:18.391Z,6.10
2018-12-21T12:29:22.619Z,6.10
2018-12-21T12:32:26.872Z,6.10
2018-12-21T12:35:31.207Z,6.10
2018-12-21T12:38:35.474Z,6.10
2018-12-21T12:41:39.685Z,6.10
2018-12-21T12:44:43.881Z,6.10
2018-12-21T12:47:48.164Z,6.10
2018-12-21T12:50:52.464Z,6.10
2018-12-21T12:53:56.739Z,6.10
2018-12-21T12:57:00.964Z,6.10
2018-12-21T13:00:08.364Z,6.10
2018-12-21T13:03:12.608Z,6.10
2018-12-21T13:06:16.812Z,6.10
2018-12-21T13:09:21.023Z,6.10
2018-12-21T13:12:25.231Z,6.10
2018-12-21T13:15:29.495Z,6.10
2018-12-21T13:18:33.755Z,6.10
2018-12-21T13:21:38.355Z,6.10
2018-12-21T13:24:42.696Z,6.10
2018-12-21T13:27:46.999Z,6.10
2018-12-21T13:30:51.302Z,6.10
2018-12-21T13:33:55.545Z,6.10
2018-12-21T13:36:59.753Z,6.10
2018-12-21T13:40:04.847Z,6.10
2018-12-21T13:43:09.068Z,6.10
2018-12-21T13:46:13.343Z,6.10
2018-12-21T13:49:17.536Z,6.10
2018-12-21T13:52:21.742Z,6.10
2018-12-21T13:55:25.938Z,6.10
2018-12-21T13:58:30.135Z,6.10
2018-12-21T14:01:34.398Z,6.10
2018-12-21T14:04:38.595Z,6.10
2018-12-21T14:07:42.883Z,6.10
2018-12-21T14:10:47.178Z,6.10
2018-12-21T14:13:51.392Z,6.10
2018-12-21T14:16:55.643Z,6.10
2018-12-21T14:19:59.859Z,6.10
2018-12-21T14:23:04.123Z,6.10
2018-12-21T14:26:08.479Z,6.10
2018-12-21T14:29:12.745Z,6.10
2018-12-21T14:32:16.980Z,6.10
2018-12-21T14:35:21.284Z,6.10
2018-12-21T14:38:25.520Z,6.10
2018-12-21T14:41:29.808Z,6.10
2018-12-21T14:44:33.998Z,6.10
2018-12-21T14:47:38.732Z,6.10
2018-12-21T14:50:42.972Z,6.10
2018-12-21T14:53:47.228Z,6.10
2018-12-21T14:56:51.527Z,6.10
2018-12-21T14:59:55.856Z,6.10
2018-12-21T15:03:00.122Z,6.10
2018-12-21T15:06:04.407Z,6.10
2018-12-21T15:09:08.896Z,6.10
2018-12-21T15:12:13.116Z,6.10
2018-12-21T15:15:17.362Z,6.10
2018-12-21T15:18:21.571Z,6.10
2018-12-21T15:21:25.863Z,6.10
2018-12-21T15:24:30.100Z,6.10
2018-12-21T15:27:34.441Z,6.10
2018-12-21T15:30:38.696Z,6.10
2018-12-21T15:33:42.979Z,6.20
2018-12-21T15:36:47.256Z,6.10
2018-12-21T15:39:51.511Z,6.10
2018-12-21T15:42:55.875Z,6.10
2018-12-21T15:46:00.075Z,6.10
2018-12-21T15:49:04.394Z,6.10
2018-12-21T15:52:08.822Z,6.10
2018-12-21T15:55:13.063Z,6.00
2018-12-21T15:58:17.335Z,6.00
2018-12-21T16:01:21.675Z,6.10
2018-12-21T16:04:26.005Z,6.00
2018-12-21T16:07:30.218Z,6.10
2018-12-21T16:10:34.419Z,6.10
2018-12-21T16:13:38.782Z,6.00
2018-12-21T16:16:43.036Z,6.00
2018-12-21T16:19:47.238Z,6.00
2018-12-21T16:22:51.511Z,6.10
2018-12-21T16:26:03.312Z,6.10
2018-12-21T16:29:02.087Z,6.00
2018-12-21T16:32:06.503Z,6.00
2018-12-21T16:35:10.734Z,6.00
2018-12-21T16:38:16.041Z,6.00
2018-12-21T16:41:20.536Z,6.00
2018-12-21T16:44:24.810Z,6.10
2018-12-21T16:47:29.026Z,6.00
2018-12-21T16:50:33.319Z,6.00
2018-12-21T16:53:37.563Z,6.00
2018-12-21T16:56:41.850Z,6.00
2018-12-21T16:59:46.211Z,6.00
2018-12-21T17:02:50.476Z,6.00
2018-12-21T17:05:54.692Z,6.00
2018-12-21T17:08:58.867Z,6.00
2018-12-21T17:12:03.075Z,6.10
2018-12-21T17:15:08.901Z,6.10
2018-12-21T17:18:13.415Z,6.10
2018-12-21T17:21:18.099Z,6.00
2018-12-21T17:24:22.522Z,6.00
2018-12-21T17:27:26.731Z,6.00
2018-12-21T17:30:31.066Z,6.00
2018-12-21T17:33:35.295Z,6.00
2018-12-21T17:36:39.582Z,6.00
2018-12-21T17:39:44.040Z,6.00
2018-12-21T17:42:48.427Z,6.00
2018-12-21T17:45:52.749Z,6.00
2018-12-21T17:48:56.952Z,6.00
2018-12-21T17:52:01.635Z,6.00
2018-12-21T17:55:08.574Z,6.00
2018-12-21T17:58:12.780Z,6.00
2018-12-21T18:01:17.254Z,6.00
2018-12-21T18:04:29.204Z,6.00
2018-12-21T18:07:33.432Z,6.00
2018-12-21T18:10:37.726Z,5.90
2018-12-21T18:13:42.015Z,6.00
2018-12-21T18:16:46.402Z,6.00
2018-12-21T18:19:50.609Z,6.00
2018-12-21T18:22:54.820Z,6.00
2018-12-21T18:25:59.123Z,6.00
2018-12-21T18:29:03.357Z,6.00
2018-12-21T18:32:19.990Z,5.90
2018-12-21T18:35:25.247Z,5.90
2018-12-21T18:38:30.724Z,5.90
2018-12-21T18:41:34.955Z,5.90
2018-12-21T18:44:39.187Z,5.90
2018-12-21T18:47:43.591Z,5.90
2018-12-21T18:50:47.799Z,5.90
2018-12-21T18:53:52.015Z,5.90
2018-12-21T18:57:01.356Z,5.90
2018-12-21T19:00:10.064Z,5.80
2018-12-21T19:03:14.282Z,5.80
2018-12-21T19:06:18.472Z,5.90
2018-12-21T19:09:22.682Z,5.90
2018-12-21T19:12:26.904Z,5.80
2018-12-21T19:15:31.136Z,5.80
2018-12-21T19:18:35.334Z,5.90
2018-12-21T19:21:39.724Z,5.90
2018-12-21T19:24:43.911Z,5.90
2018-12-21T19:27:48.199Z,5.90
2018-12-21T19:30:52.496Z,5.90
2018-12-21T19:33:56.920Z,6.00
2018-12-21T19:37:01.198Z,6.00
2018-12-21T19:40:06.983Z,6.00
2018-12-21T19:43:11.270Z,5.90
2018-12-21T19:46:15.532Z,6.00
2018-12-21T19:49:19.824Z,6.00
2018-12-21T19:52:24.106Z,6.00
2018-12-21T19:55:45.555Z,6.00
2018-12-21T19:58:49.919Z,6.00
2018-12-21T20:01:54.291Z,6.00
2018-12-21T20:04:58.511Z,6.10
2018-12-21T20:08:02.772Z,6.10
2018-12-21T20:11:07.419Z,6.10
2018-12-21T20:14:11.699Z,6.10
2018-12-21T20:17:15.988Z,6.10
2018-12-21T20:20:20.207Z,6.10
2018-12-21T20:23:24.412Z,6.10
2018-12-21T20:26:28.637Z,6.10
2018-12-21T20:29:32.924Z,6.10
2018-12-21T20:32:37.187Z,6.00
2018-12-21T20:35:41.811Z,6.00
2018-12-21T20:38:46.094Z,6.00
2018-12-21T20:41:50.464Z,6.10
2018-12-21T20:44:54.688Z,6.00
2018-12-21T20:47:58.900Z,5.90
2018-12-21T20:51:03.259Z,5.90
2018-12-21T20:54:07.568Z,5.90
2018-12-21T20:57:21.699Z,5.90
2018-12-21T21:00:20.876Z,5.90
2018-12-21T21:03:25.127Z,5.90
2018-12-21T21:06:29.352Z,5.90
2018-12-21T21:09:33.576Z,5.90
2018-12-21T21:12:37.797Z,5.90
2018-12-21T21:15:42.120Z,5.90
2018-12-21T21:18:46.410Z,5.90
2018-12-21T21:21:50.651Z,5.90
2018-12-21T21:24:54.943Z,5.90
2018-12-21T21:27:59.207Z,5.90
2018-12-21T21:31:03.514Z,6.00
2018-12-21T21:34:07.941Z,6.00
2018-12-21T21:37:12.235Z,6.00
2018-12-21T21:40:19.038Z,6.00
2018-12-21T21:43:23.402Z,6.00
2018-12-21T21:46:27.714Z,6.00
2018-12-21T21:49:31.944Z,6.00
2018-12-21T21:52:36.262Z,5.90
2018-12-21T21:55:40.589Z,5.90
2018-12-21T21:58:44.914Z,5.90
2018-12-21T22:01:49.290Z,5.90
2018-12-21T22:04:53.596Z,5.90
2018-12-21T22:07:57.879Z,5.90
2018-12-21T22:11:02.303Z,5.80
2018-12-21T22:14:06.647Z,5.80
2018-12-21T22:17:10.855Z,5.80
2018-12-21T22:20:15.136Z,5.80
2018-12-21T22:23:19.337Z,5.90
2018-12-21T22:26:23.568Z,5.90
2018-12-21T22:29:27.869Z,5.90
2018-12-21T22:32:32.139Z,5.90
2018-12-21T22:35:36.334Z,5.90
2018-12-21T22:38:40.647Z,5.80
2018-12-21T22:41:44.911Z,5.80
2018-12-21T22:44:49.235Z,5.80
2018-12-21T22:47:53.434Z,5.80
2018-12-21T22:50:57.731Z,5.80
2018-12-21T22:54:01.947Z,5.80
2018-12-21T22:57:06.171Z,5.80
2018-12-21T23:00:19.050Z,5.70
2018-12-21T23:03:23.274Z,5.60
2018-12-21T23:06:27.508Z,5.60
2018-12-21T23:09:33.191Z,5.60
2018-12-21T23:12:37.675Z,5.60
2018-12-21T23:15:42.008Z,5.60
2018-12-21T23:18:46.236Z,5.60
2018-12-21T23:21:50.457Z,5.60
2018-12-21T23:24:54.836Z,5.60
2018-12-21T23:28:04.906Z,5.60
2018-12-21T23:31:05.499Z,5.60
2018-12-21T23:34:09.699Z,5.50
2018-12-21T23:37:14.082Z,5.60
2018-12-21T23:40:18.310Z,5.60
2018-12-21T23:43:22.522Z,5.60
2018-12-21T23:46:26.889Z,5.50
2018-12-21T23:49:31.166Z,5.50
2018-12-21T23:52:35.470Z,5.40
2018-12-21T23:55:39.695Z,5.50
2018-12-21T23:58:43.914Z,5.40
